sensor_id;sensor_type;location;lat;lon;timestamp;temperature;humidity
39925;DHT22;25592;49.986;11.618;2022-12-05T00:00:52;6.40;99.90
39925;DHT22;25592;49.986;11.618;2022-12-05T00:03:38;6.40;99.90
39925;DHT22;25592;49.986;11.618;2022-12-05T00:06:23;6.40;99.90
39925;DHT22;25592;49.986;11.618;2022-12-05T00:09:10;6.40;99.90
39925;DHT22;25592;49.986;11.618;2022-12-05T00:11:55;6.40;99.90
39925;DHT22;25592;49.986;11.618;2022-12-05T00:14:42;6.40;99.90
39925;DHT22;25592;49.986;11.618;2022-12-05T00:17:27;6.30;99.90
39925;DHT22;25592;49.986;11.618;2022-12-05T00:20:12;6.40;99.90
39925;DHT22;25592;49.986;11.618;2022-12-05T00:22:57;6.40;99.90
39925;DHT22;25592;49.986;11.618;2022-12-05T00:25:42;6.40;99.90
39925;DHT22;25592;49.986;11.618;2022-12-05T00:28:27;6.40;99.90
39925;DHT22;25592;49.986;11.618;2022-12-05T00:31:13;6.40;99.90
39925;DHT22;25592;49.986;11.618;2022-12-05T00:34:01;6.40;99.90
39925;DHT22;25592;49.986;11.618;2022-12-05T00:36:46;6.40;99.90
39925;DHT22;25592;49.986;11.618;2022-12-05T00:39:31;6.40;99.90
39925;DHT22;25592;49.986;11.618;2022-12-05T00:42:17;6.40;99.90
39925;DHT22;25592;49.986;11.618;2022-12-05T00:45:02;6.40;99.90
39925;DHT22;25592;49.986;11.618;2022-12-05T00:47:47;6.40;99.90
39925;DHT22;25592;49.986;11.618;2022-12-05T00:50:32;6.50;99.90
39925;DHT22;25592;49.986;11.618;2022-12-05T00:53:17;6.50;99.90
39925;DHT22;25592;49.986;11.618;2022-12-05T00:56:03;6.50;99.90
39925;DHT22;25592;49.986;11.618;2022-12-05T00:58:49;6.50;99.90
39925;DHT22;25592;49.986;11.618;2022-12-05T01:01:37;6.50;99.90
39925;DHT22;25592;49.986;11.618;2022-12-05T01:04:24;6.40;99.90
39925;DHT22;25592;49.986;11.618;2022-12-05T01:07:09;6.40;99.90
39925;DHT22;25592;49.986;11.618;2022-12-05T01:09:54;6.50;99.90
39925;DHT22;25592;49.986;11.618;2022-12-05T01:12:40;6.50;99.90
39925;DHT22;25592;49.986;11.618;2022-12-05T01:15:25;6.40;99.90
39925;DHT22;25592;49.986;11.618;2022-12-05T01:18:10;6.40;99.90
39925;DHT22;25592;49.986;11.618;2022-12-05T01:20:55;6.50;99.90
39925;DHT22;25592;49.986;11.618;2022-12-05T01:23:40;6.50;99.90
39925;DHT22;25592;49.986;11.618;2022-12-05T01:26:25;6.50;99.90
39925;DHT22;25592;49.986;11.618;2022-12-05T01:29:11;6.60;99.90
39925;DHT22;25592;49.986;11.618;2022-12-05T01:31:57;6.50;99.90
39925;DHT22;25592;49.986;11.618;2022-12-05T01:34:42;6.50;99.90
39925;DHT22;25592;49.986;11.618;2022-12-05T01:37:27;6.60;99.90
39925;DHT22;25592;49.986;11.618;2022-12-05T01:40:12;6.60;99.90
39925;DHT22;25592;49.986;11.618;2022-12-05T01:42:57;6.60;99.90
39925;DHT22;25592;49.986;11.618;2022-12-05T01:45:44;6.60;99.90
39925;DHT22;25592;49.986;11.618;2022-12-05T01:48:31;6.50;99.90
39925;DHT22;25592;49.986;11.618;2022-12-05T01:51:17;6.60;99.90
39925;DHT22;25592;49.986;11.618;2022-12-05T01:54:02;6.60;99.90
39925;DHT22;25592;49.986;11.618;2022-12-05T01:56:49;6.60;99.90
39925;DHT22;25592;49.986;11.618;2022-12-05T01:59:37;6.60;99.90
39925;DHT22;25592;49.986;11.618;2022-12-05T02:02:23;6.60;99.90
39925;DHT22;25592;49.986;11.618;2022-12-05T02:05:10;6.60;99.90
39925;DHT22;25592;49.986;11.618;2022-12-05T02:08:00;6.60;99.90
39925;DHT22;25592;49.986;11.618;2022-12-05T02:10:48;6.60;99.90
39925;DHT22;25592;49.986;11.618;2022-12-05T02:16:27;6.60;99.90
39925;DHT22;25592;49.986;11.618;2022-12-05T02:25:04;6.60;99.90
39925;DHT22;25592;49.986;11.618;2022-12-05T02:30:42;6.60;99.90
39925;DHT22;25592;49.986;11.618;2022-12-05T02:33:36;6.60;99.90
39925;DHT22;25592;49.986;11.618;2022-12-05T02:39:55;6.60;99.90
39925;DHT22;25592;49.986;11.618;2022-12-05T02:42:23;6.60;99.90
39925;DHT22;25592;49.986;11.618;2022-12-05T02:45:11;6.60;99.90
39925;DHT22;25592;49.986;11.618;2022-12-05T02:47:58;6.60;99.90
39925;DHT22;25592;49.986;11.618;2022-12-05T02:50:43;6.60;99.90
39925;DHT22;25592;49.986;11.618;2022-12-05T02:53:30;6.60;99.90
39925;DHT22;25592;49.986;11.618;2022-12-05T02:56:16;6.60;99.90
39925;DHT22;25592;49.986;11.618;2022-12-05T02:59:02;6.60;99.90
39925;DHT22;25592;49.986;11.618;2022-12-05T03:01:47;6.70;99.90
39925;DHT22;25592;49.986;11.618;2022-12-05T03:04:33;6.70;99.90
39925;DHT22;25592;49.986;11.618;2022-12-05T03:07:19;6.70;99.90
39925;DHT22;25592;49.986;11.618;2022-12-05T03:10:06;6.70;99.90
39925;DHT22;25592;49.986;11.618;2022-12-05T03:12:55;6.70;99.90
39925;DHT22;25592;49.986;11.618;2022-12-05T03:15:44;6.70;99.90
39925;DHT22;25592;49.986;11.618;2022-12-05T03:18:38;6.60;99.90
39925;DHT22;25592;49.986;11.618;2022-12-05T03:21:26;6.60;99.90
39925;DHT22;25592;49.986;11.618;2022-12-05T03:24:14;6.60;99.90
39925;DHT22;25592;49.986;11.618;2022-12-05T03:29:58;6.60;99.90
39925;DHT22;25592;49.986;11.618;2022-12-05T03:32:52;6.60;99.90
39925;DHT22;25592;49.986;11.618;2022-12-05T03:38:25;6.60;99.90
39925;DHT22;25592;49.986;11.618;2022-12-05T03:41:14;6.50;99.90
39925;DHT22;25592;49.986;11.618;2022-12-05T03:46:51;6.60;99.90
39925;DHT22;25592;49.986;11.618;2022-12-05T03:49:42;6.60;99.90
39925;DHT22;25592;49.986;11.618;2022-12-05T03:52:30;6.60;99.90
39925;DHT22;25592;49.986;11.618;2022-12-05T03:55:38;6.60;99.90
39925;DHT22;25592;49.986;11.618;2022-12-05T03:58:25;6.60;99.90
39925;DHT22;25592;49.986;11.618;2022-12-05T04:01:11;6.60;99.90
39925;DHT22;25592;49.986;11.618;2022-12-05T04:03:58;6.60;99.90
39925;DHT22;25592;49.986;11.618;2022-12-05T04:06:45;6.60;99.90
39925;DHT22;25592;49.986;11.618;2022-12-05T04:09:35;6.60;99.90
39925;DHT22;25592;49.986;11.618;2022-12-05T04:12:22;6.60;99.90
39925;DHT22;25592;49.986;11.618;2022-12-05T04:15:42;6.60;99.90
39925;DHT22;25592;49.986;11.618;2022-12-05T04:18:41;6.60;99.90
39925;DHT22;25592;49.986;11.618;2022-12-05T04:21:29;6.60;99.90
39925;DHT22;25592;49.986;11.618;2022-12-05T04:24:25;6.60;99.90
39925;DHT22;25592;49.986;11.618;2022-12-05T04:30:31;6.60;99.90
39925;DHT22;25592;49.986;11.618;2022-12-05T04:36:23;6.70;99.90
39925;DHT22;25592;49.986;11.618;2022-12-05T04:39:20;6.70;99.90
39925;DHT22;25592;49.986;11.618;2022-12-05T04:42:08;6.70;99.90
39925;DHT22;25592;49.986;11.618;2022-12-05T04:45:06;6.60;99.90
39925;DHT22;25592;49.986;11.618;2022-12-05T04:47:55;6.60;99.90
39925;DHT22;25592;49.986;11.618;2022-12-05T04:50:40;6.70;99.90
39925;DHT22;25592;49.986;11.618;2022-12-05T04:53:27;6.70;99.90
39925;DHT22;25592;49.986;11.618;2022-12-05T04:56:14;6.70;99.90
39925;DHT22;25592;49.986;11.618;2022-12-05T04:59:00;6.70;99.90
39925;DHT22;25592;49.986;11.618;2022-12-05T05:01:49;6.70;99.90
39925;DHT22;25592;49.986;11.618;2022-12-05T05:04:36;6.70;99.90
39925;DHT22;25592;49.986;11.618;2022-12-05T05:07:22;6.80;99.90
39925;DHT22;25592;49.986;11.618;2022-12-05T05:10:07;6.80;99.90
39925;DHT22;25592;49.986;11.618;2022-12-05T05:12:53;6.80;99.90
39925;DHT22;25592;49.986;11.618;2022-12-05T05:15:38;6.70;99.90
39925;DHT22;25592;49.986;11.618;2022-12-05T05:18:23;6.70;99.90
39925;DHT22;25592;49.986;11.618;2022-12-05T05:21:13;6.60;99.90
39925;DHT22;25592;49.986;11.618;2022-12-05T05:23:59;6.60;99.90
39925;DHT22;25592;49.986;11.618;2022-12-05T05:26:44;6.70;99.90
39925;DHT22;25592;49.986;11.618;2022-12-05T05:29:29;6.70;99.90
39925;DHT22;25592;49.986;11.618;2022-12-05T05:32:15;6.60;99.90
39925;DHT22;25592;49.986;11.618;2022-12-05T05:35:00;6.60;99.90
39925;DHT22;25592;49.986;11.618;2022-12-05T05:37:45;6.60;99.90
39925;DHT22;25592;49.986;11.618;2022-12-05T05:40:33;6.60;99.90
39925;DHT22;25592;49.986;11.618;2022-12-05T05:43:18;6.60;99.90
39925;DHT22;25592;49.986;11.618;2022-12-05T05:46:04;6.50;99.90
39925;DHT22;25592;49.986;11.618;2022-12-05T05:48:49;6.50;99.90
39925;DHT22;25592;49.986;11.618;2022-12-05T05:51:34;6.50;99.90
39925;DHT22;25592;49.986;11.618;2022-12-05T05:54:19;6.50;99.90
39925;DHT22;25592;49.986;11.618;2022-12-05T05:57:04;6.40;99.90
39925;DHT22;25592;49.986;11.618;2022-12-05T05:59:49;6.40;99.90
39925;DHT22;25592;49.986;11.618;2022-12-05T06:02:35;6.30;99.90
39925;DHT22;25592;49.986;11.618;2022-12-05T06:05:20;6.30;99.90
39925;DHT22;25592;49.986;11.618;2022-12-05T06:08:05;6.30;99.90
39925;DHT22;25592;49.986;11.618;2022-12-05T06:10:51;6.40;99.90
39925;DHT22;25592;49.986;11.618;2022-12-05T06:13:36;6.40;99.90
39925;DHT22;25592;49.986;11.618;2022-12-05T06:16:21;6.40;99.90
39925;DHT22;25592;49.986;11.618;2022-12-05T06:19:07;6.70;99.90
39925;DHT22;25592;49.986;11.618;2022-12-05T06:21:52;6.60;99.90
39925;DHT22;25592;49.986;11.618;2022-12-05T06:24:37;6.60;99.90
39925;DHT22;25592;49.986;11.618;2022-12-05T06:27:23;6.70;99.90
39925;DHT22;25592;49.986;11.618;2022-12-05T06:30:08;6.70;99.90
39925;DHT22;25592;49.986;11.618;2022-12-05T06:32:53;6.70;99.90
39925;DHT22;25592;49.986;11.618;2022-12-05T06:35:39;6.50;99.90
39925;DHT22;25592;49.986;11.618;2022-12-05T06:38:24;6.40;99.90
39925;DHT22;25592;49.986;11.618;2022-12-05T06:41:11;6.40;99.90
39925;DHT22;25592;49.986;11.618;2022-12-05T06:43:57;6.30;99.90
39925;DHT22;25592;49.986;11.618;2022-12-05T06:46:47;6.40;99.90
39925;DHT22;25592;49.986;11.618;2022-12-05T06:49:32;6.40;99.90
39925;DHT22;25592;49.986;11.618;2022-12-05T06:52:22;6.40;99.90
39925;DHT22;25592;49.986;11.618;2022-12-05T06:55:07;6.20;99.90
39925;DHT22;25592;49.986;11.618;2022-12-05T06:57:52;6.10;99.90
39925;DHT22;25592;49.986;11.618;2022-12-05T07:00:37;6.10;99.90
39925;DHT22;25592;49.986;11.618;2022-12-05T07:03:41;5.80;99.90
39925;DHT22;25592;49.986;11.618;2022-12-05T07:06:33;5.90;99.90
39925;DHT22;25592;49.986;11.618;2022-12-05T07:09:19;5.90;99.90
39925;DHT22;25592;49.986;11.618;2022-12-05T07:12:05;5.80;99.90
39925;DHT22;25592;49.986;11.618;2022-12-05T07:14:50;5.80;99.90
39925;DHT22;25592;49.986;11.618;2022-12-05T07:17:36;5.80;99.90
39925;DHT22;25592;49.986;11.618;2022-12-05T07:20:22;5.90;99.90
39925;DHT22;25592;49.986;11.618;2022-12-05T07:23:07;6.00;99.90
39925;DHT22;25592;49.986;11.618;2022-12-05T07:25:52;5.90;99.90
39925;DHT22;25592;49.986;11.618;2022-12-05T07:28:38;5.80;99.90
39925;DHT22;25592;49.986;11.618;2022-12-05T07:31:23;5.80;99.90
39925;DHT22;25592;49.986;11.618;2022-12-05T07:34:10;5.90;99.90
39925;DHT22;25592;49.986;11.618;2022-12-05T07:36:55;5.90;99.90
39925;DHT22;25592;49.986;11.618;2022-12-05T07:39:40;5.80;99.90
39925;DHT22;25592;49.986;11.618;2022-12-05T07:42:25;5.90;99.90
39925;DHT22;25592;49.986;11.618;2022-12-05T07:45:10;6.00;99.90
39925;DHT22;25592;49.986;11.618;2022-12-05T07:47:55;6.00;99.90
39925;DHT22;25592;49.986;11.618;2022-12-05T07:50:40;5.90;99.90
39925;DHT22;25592;49.986;11.618;2022-12-05T07:53:25;5.80;99.90
39925;DHT22;25592;49.986;11.618;2022-12-05T07:56:12;5.80;99.90
39925;DHT22;25592;49.986;11.618;2022-12-05T07:59:00;5.80;99.90
39925;DHT22;25592;49.986;11.618;2022-12-05T08:01:45;5.80;99.90
39925;DHT22;25592;49.986;11.618;2022-12-05T08:04:30;5.90;99.90
39925;DHT22;25592;49.986;11.618;2022-12-05T08:07:15;5.90;99.90
39925;DHT22;25592;49.986;11.618;2022-12-05T08:10:01;5.80;99.90
39925;DHT22;25592;49.986;11.618;2022-12-05T08:12:46;5.70;99.90
39925;DHT22;25592;49.986;11.618;2022-12-05T08:15:32;5.80;99.90
39925;DHT22;25592;49.986;11.618;2022-12-05T08:18:17;5.70;99.90
39925;DHT22;25592;49.986;11.618;2022-12-05T08:21:10;5.80;99.90
39925;DHT22;25592;49.986;11.618;2022-12-05T08:23:56;5.80;99.90
39925;DHT22;25592;49.986;11.618;2022-12-05T08:26:42;5.90;99.90
39925;DHT22;25592;49.986;11.618;2022-12-05T08:29:27;5.90;99.90
39925;DHT22;25592;49.986;11.618;2022-12-05T08:32:12;5.70;99.90
39925;DHT22;25592;49.986;11.618;2022-12-05T08:34:57;5.50;99.90
39925;DHT22;25592;49.986;11.618;2022-12-05T08:37:42;5.60;99.90
39925;DHT22;25592;49.986;11.618;2022-12-05T08:40:27;5.60;99.90
39925;DHT22;25592;49.986;11.618;2022-12-05T08:43:12;5.70;99.90
39925;DHT22;25592;49.986;11.618;2022-12-05T08:45:58;5.70;99.90
39925;DHT22;25592;49.986;11.618;2022-12-05T08:48:43;5.60;99.90
39925;DHT22;25592;49.986;11.618;2022-12-05T08:51:28;5.80;99.90
39925;DHT22;25592;49.986;11.618;2022-12-05T08:54:14;5.90;99.90
39925;DHT22;25592;49.986;11.618;2022-12-05T08:56:59;6.00;99.90
39925;DHT22;25592;49.986;11.618;2022-12-05T08:59:44;5.80;99.90
39925;DHT22;25592;49.986;11.618;2022-12-05T09:02:29;5.90;99.90
39925;DHT22;25592;49.986;11.618;2022-12-05T09:05:15;5.90;99.90
39925;DHT22;25592;49.986;11.618;2022-12-05T09:08:12;5.90;99.90
39925;DHT22;25592;49.986;11.618;2022-12-05T09:10:57;5.80;99.90
39925;DHT22;25592;49.986;11.618;2022-12-05T09:13:42;5.80;99.90
39925;DHT22;25592;49.986;11.618;2022-12-05T09:16:29;5.80;99.90
39925;DHT22;25592;49.986;11.618;2022-12-05T09:19:21;5.80;99.90
39925;DHT22;25592;49.986;11.618;2022-12-05T09:22:08;5.60;99.90
39925;DHT22;25592;49.986;11.618;2022-12-05T09:24:53;5.50;99.90
39925;DHT22;25592;49.986;11.618;2022-12-05T09:27:38;5.50;99.90
39925;DHT22;25592;49.986;11.618;2022-12-05T09:30:23;5.60;99.90
39925;DHT22;25592;49.986;11.618;2022-12-05T09:33:08;5.70;99.90
39925;DHT22;25592;49.986;11.618;2022-12-05T09:35:53;5.70;99.90
39925;DHT22;25592;49.986;11.618;2022-12-05T09:38:38;5.70;99.90
39925;DHT22;25592;49.986;11.618;2022-12-05T09:50:29;5.60;99.90
39925;DHT22;25592;49.986;11.618;2022-12-05T09:53:35;5.60;99.90
39925;DHT22;25592;49.986;11.618;2022-12-05T09:56:25;5.70;99.90
39925;DHT22;25592;49.986;11.618;2022-12-05T09:59:11;5.70;99.90
39925;DHT22;25592;49.986;11.618;2022-12-05T10:04:52;5.60;99.90
39925;DHT22;25592;49.986;11.618;2022-12-05T10:11:04;5.70;99.90
39925;DHT22;25592;49.986;11.618;2022-12-05T10:13:51;5.80;99.90
39925;DHT22;25592;49.986;11.618;2022-12-05T10:16:44;5.80;99.90
39925;DHT22;25592;49.986;11.618;2022-12-05T10:19:31;5.90;99.90
39925;DHT22;25592;49.986;11.618;2022-12-05T10:22:19;5.90;99.90
39925;DHT22;25592;49.986;11.618;2022-12-05T10:25:07;5.90;99.90
39925;DHT22;25592;49.986;11.618;2022-12-05T10:27:57;5.90;99.90
39925;DHT22;25592;49.986;11.618;2022-12-05T10:30:43;5.90;99.90
39925;DHT22;25592;49.986;11.618;2022-12-05T10:33:32;5.80;99.90
39925;DHT22;25592;49.986;11.618;2022-12-05T10:36:19;5.80;99.90
39925;DHT22;25592;49.986;11.618;2022-12-05T10:39:04;5.70;99.90
39925;DHT22;25592;49.986;11.618;2022-12-05T10:41:55;5.70;99.90
39925;DHT22;25592;49.986;11.618;2022-12-05T10:44:41;5.80;99.90
39925;DHT22;25592;49.986;11.618;2022-12-05T10:47:27;5.90;99.90
39925;DHT22;25592;49.986;11.618;2022-12-05T10:50:17;5.90;99.90
39925;DHT22;25592;49.986;11.618;2022-12-05T10:53:04;5.90;99.90
39925;DHT22;25592;49.986;11.618;2022-12-05T10:55:49;6.00;99.90
39925;DHT22;25592;49.986;11.618;2022-12-05T10:58:57;6.00;99.90
39925;DHT22;25592;49.986;11.618;2022-12-05T11:01:46;6.10;99.90
39925;DHT22;25592;49.986;11.618;2022-12-05T11:04:42;6.10;99.90
39925;DHT22;25592;49.986;11.618;2022-12-05T11:07:30;6.20;99.90
39925;DHT22;25592;49.986;11.618;2022-12-05T11:10:20;6.20;99.90
39925;DHT22;25592;49.986;11.618;2022-12-05T11:13:14;6.10;99.90
39925;DHT22;25592;49.986;11.618;2022-12-05T11:16:00;6.10;99.90
39925;DHT22;25592;49.986;11.618;2022-12-05T11:18:45;6.10;99.90
39925;DHT22;25592;49.986;11.618;2022-12-05T11:21:40;6.10;99.90
39925;DHT22;25592;49.986;11.618;2022-12-05T11:27:19;6.10;99.90
39925;DHT22;25592;49.986;11.618;2022-12-05T11:36:00;6.30;99.90
39925;DHT22;25592;49.986;11.618;2022-12-05T11:38:46;6.30;99.90
39925;DHT22;25592;49.986;11.618;2022-12-05T11:44:49;6.30;99.90
39925;DHT22;25592;49.986;11.618;2022-12-05T11:56:14;6.30;99.90
39925;DHT22;25592;49.986;11.618;2022-12-05T12:02:12;6.20;99.90
39925;DHT22;25592;49.986;11.618;2022-12-05T12:11:07;6.20;99.90
39925;DHT22;25592;49.986;11.618;2022-12-05T12:13:56;6.10;99.90
39925;DHT22;25592;49.986;11.618;2022-12-05T12:22:33;6.00;99.90
39925;DHT22;25592;49.986;11.618;2022-12-05T12:25:39;5.90;99.90
39925;DHT22;25592;49.986;11.618;2022-12-05T12:28:31;5.80;99.90
39925;DHT22;25592;49.986;11.618;2022-12-05T12:31:25;5.80;99.90
39925;DHT22;25592;49.986;11.618;2022-12-05T12:40:13;5.90;99.90
39925;DHT22;25592;49.986;11.618;2022-12-05T12:43:18;5.70;99.90
39925;DHT22;25592;49.986;11.618;2022-12-05T12:49:26;5.80;99.90
39925;DHT22;25592;49.986;11.618;2022-12-05T12:52:16;5.90;99.90
39925;DHT22;25592;49.986;11.618;2022-12-05T12:58:11;5.80;99.90
39925;DHT22;25592;49.986;11.618;2022-12-05T13:04:17;5.60;99.90
39925;DHT22;25592;49.986;11.618;2022-12-05T13:07:14;5.70;99.90
39925;DHT22;25592;49.986;11.618;2022-12-05T13:10:18;5.80;99.90
39925;DHT22;25592;49.986;11.618;2022-12-05T13:13:06;5.90;99.90
39925;DHT22;25592;49.986;11.618;2022-12-05T13:15:53;5.90;99.90
39925;DHT22;25592;49.986;11.618;2022-12-05T13:18:40;6.00;99.90
39925;DHT22;25592;49.986;11.618;2022-12-05T13:21:25;6.10;99.90
39925;DHT22;25592;49.986;11.618;2022-12-05T13:24:11;6.20;99.90
39925;DHT22;25592;49.986;11.618;2022-12-05T13:26:58;6.30;99.90
39925;DHT22;25592;49.986;11.618;2022-12-05T13:29:54;6.40;99.90
39925;DHT22;25592;49.986;11.618;2022-12-05T13:32:41;6.40;99.90
39925;DHT22;25592;49.986;11.618;2022-12-05T13:38:32;6.50;99.90
39925;DHT22;25592;49.986;11.618;2022-12-05T13:41:38;6.60;99.90
39925;DHT22;25592;49.986;11.618;2022-12-05T13:44:43;6.60;99.90
39925;DHT22;25592;49.986;11.618;2022-12-05T13:50:18;6.60;99.90
39925;DHT22;25592;49.986;11.618;2022-12-05T13:53:19;6.60;99.90
39925;DHT22;25592;49.986;11.618;2022-12-05T13:58:57;6.60;99.90
39925;DHT22;25592;49.986;11.618;2022-12-05T14:01:44;6.60;99.90
39925;DHT22;25592;49.986;11.618;2022-12-05T14:04:45;6.60;99.90
39925;DHT22;25592;49.986;11.618;2022-12-05T14:07:36;6.60;99.90
39925;DHT22;25592;49.986;11.618;2022-12-05T14:19:05;6.60;99.90
39925;DHT22;25592;49.986;11.618;2022-12-05T14:24:48;6.50;99.90
39925;DHT22;25592;49.986;11.618;2022-12-05T14:27:40;6.60;99.90
39925;DHT22;25592;49.986;11.618;2022-12-05T14:30:29;6.60;99.90
39925;DHT22;25592;49.986;11.618;2022-12-05T14:33:19;6.60;99.90
39925;DHT22;25592;49.986;11.618;2022-12-05T14:36:06;6.60;99.90
39925;DHT22;25592;49.986;11.618;2022-12-05T14:38:57;6.60;99.90
39925;DHT22;25592;49.986;11.618;2022-12-05T14:41:42;6.60;99.90
39925;DHT22;25592;49.986;11.618;2022-12-05T14:44:28;6.60;99.90
39925;DHT22;25592;49.986;11.618;2022-12-05T14:47:17;6.60;99.90
39925;DHT22;25592;49.986;11.618;2022-12-05T14:56:12;6.60;99.90
39925;DHT22;25592;49.986;11.618;2022-12-05T15:01:49;6.60;99.90
39925;DHT22;25592;49.986;11.618;2022-12-05T15:04:40;6.60;99.90
39925;DHT22;25592;49.986;11.618;2022-12-05T15:07:33;6.60;99.90
39925;DHT22;25592;49.986;11.618;2022-12-05T15:10:20;6.50;99.90
39925;DHT22;25592;49.986;11.618;2022-12-05T15:13:08;6.40;99.90
39925;DHT22;25592;49.986;11.618;2022-12-05T15:16:14;6.30;99.90
39925;DHT22;25592;49.986;11.618;2022-12-05T15:19:05;6.30;99.90
39925;DHT22;25592;49.986;11.618;2022-12-05T15:21:53;6.30;99.90
39925;DHT22;25592;49.986;11.618;2022-12-05T15:24:40;6.40;99.90
39925;DHT22;25592;49.986;11.618;2022-12-05T15:27:26;6.30;99.90
39925;DHT22;25592;49.986;11.618;2022-12-05T15:30:14;6.20;99.90
39925;DHT22;25592;49.986;11.618;2022-12-05T15:32:59;6.30;99.90
39925;DHT22;25592;49.986;11.618;2022-12-05T15:35:46;6.20;99.90
39925;DHT22;25592;49.986;11.618;2022-12-05T15:38:32;6.30;99.90
39925;DHT22;25592;49.986;11.618;2022-12-05T15:41:18;6.20;99.90
39925;DHT22;25592;49.986;11.618;2022-12-05T15:44:03;6.30;99.90
39925;DHT22;25592;49.986;11.618;2022-12-05T15:46:52;6.30;99.90
39925;DHT22;25592;49.986;11.618;2022-12-05T15:49:37;6.30;99.90
39925;DHT22;25592;49.986;11.618;2022-12-05T15:55:14;6.30;99.90
39925;DHT22;25592;49.986;11.618;2022-12-05T15:58:20;6.30;99.90
39925;DHT22;25592;49.986;11.618;2022-12-05T16:01:11;6.40;99.90
39925;DHT22;25592;49.986;11.618;2022-12-05T16:06:43;6.50;99.90
39925;DHT22;25592;49.986;11.618;2022-12-05T16:09:32;6.40;99.90
39925;DHT22;25592;49.986;11.618;2022-12-05T16:15:20;6.30;99.90
39925;DHT22;25592;49.986;11.618;2022-12-05T16:18:18;6.20;99.90
39925;DHT22;25592;49.986;11.618;2022-12-05T16:23:24;6.10;99.90
39925;DHT22;25592;49.986;11.618;2022-12-05T16:26:19;6.10;99.90
39925;DHT22;25592;49.986;11.618;2022-12-05T16:29:04;6.20;99.90
39925;DHT22;25592;49.986;11.618;2022-12-05T16:31:52;6.20;99.90
39925;DHT22;25592;49.986;11.618;2022-12-05T16:34:38;6.10;99.90
39925;DHT22;25592;49.986;11.618;2022-12-05T16:38:20;6.10;99.90
39925;DHT22;25592;49.986;11.618;2022-12-05T16:41:06;6.10;99.90
39925;DHT22;25592;49.986;11.618;2022-12-05T16:43:53;5.90;99.90
39925;DHT22;25592;49.986;11.618;2022-12-05T16:52:15;6.00;99.90
39925;DHT22;25592;49.986;11.618;2022-12-05T16:55:00;5.90;99.90
39925;DHT22;25592;49.986;11.618;2022-12-05T16:57:46;5.90;99.90
39925;DHT22;25592;49.986;11.618;2022-12-05T17:00:31;6.00;99.90
39925;DHT22;25592;49.986;11.618;2022-12-05T17:03:17;6.00;99.90
39925;DHT22;25592;49.986;11.618;2022-12-05T17:06:19;5.90;99.90
39925;DHT22;25592;49.986;11.618;2022-12-05T17:09:10;6.00;99.90
39925;DHT22;25592;49.986;11.618;2022-12-05T17:12:00;6.00;99.90
39925;DHT22;25592;49.986;11.618;2022-12-05T17:14:46;5.90;99.90
39925;DHT22;25592;49.986;11.618;2022-12-05T17:17:31;6.10;99.90
39925;DHT22;25592;49.986;11.618;2022-12-05T17:20:16;5.90;99.90
39925;DHT22;25592;49.986;11.618;2022-12-05T17:23:01;6.00;99.90
39925;DHT22;25592;49.986;11.618;2022-12-05T17:25:47;5.90;99.90
39925;DHT22;25592;49.986;11.618;2022-12-05T17:28:33;6.00;99.90
39925;DHT22;25592;49.986;11.618;2022-12-05T17:31:20;6.00;99.90
39925;DHT22;25592;49.986;11.618;2022-12-05T17:34:12;6.00;99.90
39925;DHT22;25592;49.986;11.618;2022-12-05T17:36:59;6.00;99.90
39925;DHT22;25592;49.986;11.618;2022-12-05T17:39:44;6.10;99.90
39925;DHT22;25592;49.986;11.618;2022-12-05T17:42:30;6.10;99.90
39925;DHT22;25592;49.986;11.618;2022-12-05T17:45:15;6.10;99.90
39925;DHT22;25592;49.986;11.618;2022-12-05T17:48:00;6.10;99.90
39925;DHT22;25592;49.986;11.618;2022-12-05T17:50:46;6.10;99.90
39925;DHT22;25592;49.986;11.618;2022-12-05T17:53:31;6.10;99.90
39925;DHT22;25592;49.986;11.618;2022-12-05T17:56:16;6.00;99.90
39925;DHT22;25592;49.986;11.618;2022-12-05T17:59:01;6.00;99.90
39925;DHT22;25592;49.986;11.618;2022-12-05T18:01:51;6.00;99.90
39925;DHT22;25592;49.986;11.618;2022-12-05T18:04:36;6.10;99.90
39925;DHT22;25592;49.986;11.618;2022-12-05T18:07:21;6.10;99.90
39925;DHT22;25592;49.986;11.618;2022-12-05T18:10:07;6.10;99.90
39925;DHT22;25592;49.986;11.618;2022-12-05T18:12:57;6.10;99.90
39925;DHT22;25592;49.986;11.618;2022-12-05T18:15:42;6.20;99.90
39925;DHT22;25592;49.986;11.618;2022-12-05T18:18:27;6.10;99.90
39925;DHT22;25592;49.986;11.618;2022-12-05T18:21:13;6.10;99.90
39925;DHT22;25592;49.986;11.618;2022-12-05T18:23:58;6.00;99.90
39925;DHT22;25592;49.986;11.618;2022-12-05T18:26:43;6.00;99.90
39925;DHT22;25592;49.986;11.618;2022-12-05T18:29:29;6.10;99.90
39925;DHT22;25592;49.986;11.618;2022-12-05T18:32:14;6.10;99.90
39925;DHT22;25592;49.986;11.618;2022-12-05T18:34:59;6.10;99.90
39925;DHT22;25592;49.986;11.618;2022-12-05T18:37:46;6.10;99.90
39925;DHT22;25592;49.986;11.618;2022-12-05T18:40:31;6.40;99.90
39925;DHT22;25592;49.986;11.618;2022-12-05T18:43:16;6.40;99.90
39925;DHT22;25592;49.986;11.618;2022-12-05T18:46:02;6.30;99.90
39925;DHT22;25592;49.986;11.618;2022-12-05T18:48:47;6.30;99.90
39925;DHT22;25592;49.986;11.618;2022-12-05T18:51:32;6.30;99.90
39925;DHT22;25592;49.986;11.618;2022-12-05T18:54:17;6.20;99.90
39925;DHT22;25592;49.986;11.618;2022-12-05T18:57:03;6.20;99.90
39925;DHT22;25592;49.986;11.618;2022-12-05T18:59:48;6.20;99.90
39925;DHT22;25592;49.986;11.618;2022-12-05T19:02:35;6.30;99.90
39925;DHT22;25592;49.986;11.618;2022-12-05T19:05:21;6.30;99.90
39925;DHT22;25592;49.986;11.618;2022-12-05T19:08:07;6.30;99.90
39925;DHT22;25592;49.986;11.618;2022-12-05T19:10:53;6.30;99.90
39925;DHT22;25592;49.986;11.618;2022-12-05T19:13:38;6.30;99.90
39925;DHT22;25592;49.986;11.618;2022-12-05T19:16:24;6.20;99.90
39925;DHT22;25592;49.986;11.618;2022-12-05T19:19:09;6.20;99.90
39925;DHT22;25592;49.986;11.618;2022-12-05T19:21:57;6.30;99.90
39925;DHT22;25592;49.986;11.618;2022-12-05T19:24:44;6.30;99.90
39925;DHT22;25592;49.986;11.618;2022-12-05T19:27:30;6.30;99.90
39925;DHT22;25592;49.986;11.618;2022-12-05T19:30:15;6.30;99.90
39925;DHT22;25592;49.986;11.618;2022-12-05T19:33:00;6.30;99.90
39925;DHT22;25592;49.986;11.618;2022-12-05T19:35:45;6.30;99.90
39925;DHT22;25592;49.986;11.618;2022-12-05T19:38:31;6.30;99.90
39925;DHT22;25592;49.986;11.618;2022-12-05T19:41:18;6.30;99.90
39925;DHT22;25592;49.986;11.618;2022-12-05T19:44:03;6.30;99.90
39925;DHT22;25592;49.986;11.618;2022-12-05T19:46:49;6.30;99.90
39925;DHT22;25592;49.986;11.618;2022-12-05T19:49:34;6.40;99.90
39925;DHT22;25592;49.986;11.618;2022-12-05T19:52:20;6.40;99.90
39925;DHT22;25592;49.986;11.618;2022-12-05T19:55:05;6.40;99.90
39925;DHT22;25592;49.986;11.618;2022-12-05T19:57:50;6.40;99.90
39925;DHT22;25592;49.986;11.618;2022-12-05T20:00:35;6.40;99.90